Terminal Aerodrome Forecast
Issued by NWS Sioux Falls, SD

Home | Current Version | Previous Version | Text Only | Print | Product List | Glossary Off
Versions: 1 2 3 4 5 6 7 8 9 10 11 12 13 14 15 16

000
FTUS43 KFSD 251738
TAFFSD
TAF
KFSD 251738Z 2518/2618 09013G19KT P6SM SCT040 BKN200
     FM260100 09007KT P6SM SCT035
     FM261400 11013KT P6SM SCT200=

USA.gov is the U.S. government's official web portal to all federal, state and local government web resources and services.